Time;durP1;ratioP1;P1;durP2;ratioP2;P2;SDS_P1;SDS_P2;PMS_P1;PMS_P2;Temp;Humidity;BMP_temperature;BMP_pressure;BME280_temperature;BME280_humidity;BME280_pressure;Samples;Min_cycle;Max_cycle;Signal;HPM_P1;HPM_P2
2023/11/01 00:00:30;;;;;;;8.07;2.70;;;13.90;99.90;;;;;;5075475;28;20821;-58
2023/11/01 00:02:58;;;;;;;6.23;1.90;;;13.90;99.90;;;;;;5075362;28;20496;-58
2023/11/01 00:05:25;;;;;;;10.10;2.30;;;13.90;99.90;;;;;;5075631;28;20444;-59
2023/11/01 00:07:51;;;;;;;10.33;1.90;;;13.90;99.90;;;;;;5075656;28;20818;-59
2023/11/01 00:10:18;;;;;;;10.03;2.37;;;14.00;99.90;;;;;;5075401;28;20492;-59
2023/11/01 00:12:45;;;;;;;9.10;2.00;;;14.00;99.90;;;;;;5075454;28;20461;-59
2023/11/01 00:15:12;;;;;;;7.57;2.10;;;14.00;99.90;;;;;;5075174;28;20953;-59
2023/11/01 00:17:38;;;;;;;3.57;1.80;;;14.00;99.90;;;;;;5075741;28;20460;-60
2023/11/01 00:20:09;;;;;;;4.87;2.00;;;14.00;99.90;;;;;;5075458;28;20791;-60
2023/11/01 00:22:35;;;;;;;5.40;2.43;;;13.90;99.90;;;;;;5074629;28;20481;-59
2023/11/01 00:25:02;;;;;;;7.40;2.07;;;13.90;99.90;;;;;;5075041;28;20445;-60
2023/11/01 00:27:30;;;;;;;3.50;1.30;;;13.90;99.90;;;;;;5074968;28;20976;-59
2023/11/01 00:29:57;;;;;;;4.90;1.40;;;13.90;99.90;;;;;;5075161;28;20445;-59
2023/11/01 00:32:24;;;;;;;3.00;1.30;;;14.00;99.90;;;;;;5074869;28;20471;-59
2023/11/01 00:34:51;;;;;;;5.07;1.60;;;14.00;99.90;;;;;;5075082;28;20821;-59
2023/11/01 00:37:19;;;;;;;9.47;1.87;;;14.00;99.90;;;;;;5075032;28;20449;-59
2023/11/01 00:39:46;;;;;;;6.33;1.30;;;14.00;99.90;;;;;;5074912;28;20445;-59
2023/11/01 00:42:12;;;;;;;5.40;1.40;;;14.00;99.90;;;;;;5074908;28;20456;-59
2023/11/01 00:44:38;;;;;;;3.50;1.47;;;13.90;99.90;;;;;;5074682;28;20896;-59
2023/11/01 00:47:05;;;;;;;3.27;1.23;;;13.90;99.90;;;;;;5074842;28;20441;-60
2023/11/01 00:49:32;;;;;;;4.43;2.07;;;13.90;99.90;;;;;;5074777;28;20214;-59
2023/11/01 00:51:59;;;;;;;6.47;1.50;;;13.90;99.90;;;;;;5074725;28;20471;-59
2023/11/01 00:54:27;;;;;;;4.87;1.30;;;13.90;99.90;;;;;;5074761;28;20452;-59
2023/11/01 00:56:53;;;;;;;5.47;2.23;;;13.90;99.90;;;;;;5074433;28;20935;-60
2023/11/01 00:59:20;;;;;;;3.63;1.30;;;13.90;99.90;;;;;;5074496;28;20935;-59
2023/11/01 01:01:47;;;;;;;2.90;1.30;;;13.90;99.90;;;;;;5073617;28;20813;-60
2023/11/01 01:04:13;;;;;;;2.70;1.50;;;13.90;99.90;;;;;;5074997;28;20484;-60
2023/11/01 01:06:40;;;;;;;3.47;1.47;;;13.90;99.90;;;;;;5075244;28;20445;-59
2023/11/01 01:09:07;;;;;;;8.67;1.70;;;13.90;99.90;;;;;;5074680;28;20490;-60
2023/11/01 01:11:35;;;;;;;4.13;1.60;;;13.90;99.90;;;;;;5074526;28;20476;-60
2023/11/01 01:14:01;;;;;;;3.13;1.53;;;13.80;99.90;;;;;;5074115;28;20949;-60
2023/11/01 01:16:28;;;;;;;2.07;1.20;;;13.80;99.90;;;;;;5074624;28;20540;-59
2023/11/01 01:18:55;;;;;;;2.90;1.30;;;13.80;99.90;;;;;;5074301;28;20445;-59
2023/11/01 01:21:21;;;;;;;3.10;1.40;;;13.70;99.90;;;;;;5073973;28;20833;-60
2023/11/01 01:23:48;;;;;;;7.20;1.40;;;13.80;99.90;;;;;;5074524;28;20488;-60
2023/11/01 01:26:15;;;;;;;4.43;1.80;;;13.70;99.90;;;;;;5074284;28;20449;-60
2023/11/01 01:28:43;;;;;;;7.20;3.10;;;13.70;99.90;;;;;;5074208;28;20456;-60
2023/11/01 01:31:09;;;;;;;5.63;1.60;;;13.70;99.90;;;;;;5073991;28;20464;-59
2023/11/01 01:33:36;;;;;;;5.10;1.20;;;13.70;99.90;;;;;;5073362;28;20511;-60
2023/11/01 01:36:03;;;;;;;1.90;1.23;;;13.70;99.90;;;;;;5073945;28;20441;-60
2023/11/01 01:38:30;;;;;;;4.70;1.00;;;13.70;99.90;;;;;;5074178;28;20440;-59
2023/11/01 01:40:57;;;;;;;5.70;1.33;;;13.70;99.90;;;;;;5073634;28;20452;-58
2023/11/01 01:43:24;;;;;;;3.67;1.10;;;13.80;99.90;;;;;;5073365;28;20849;-58
2023/11/01 01:45:59;;;;;;;5.77;1.30;;;13.80;99.90;;;;;;5073770;28;20563;-58
2023/11/01 01:48:26;;;;;;;1.80;1.23;;;13.80;99.90;;;;;;5073658;28;20428;-59
2023/11/01 01:50:53;;;;;;;4.10;1.20;;;13.80;99.90;;;;;;5073703;28;20452;-59
2023/11/01 01:53:20;;;;;;;5.00;1.60;;;13.80;99.90;;;;;;5073613;28;20437;-59
2023/11/01 01:55:47;;;;;;;4.90;1.30;;;13.70;99.90;;;;;;5073271;28;20848;-60
2023/11/01 01:58:14;;;;;;;3.77;1.40;;;13.70;99.90;;;;;;5073626;28;20453;-59
2023/11/01 02:00:41;;;;;;;5.30;1.27;;;13.70;99.90;;;;;;5073610;28;20445;-59
2023/11/01 02:03:10;;;;;;;2.63;0.80;;;13.70;99.90;;;;;;5073507;28;20484;-59
2023/11/01 02:05:37;;;;;;;3.03;1.20;;;13.70;99.90;;;;;;5073518;28;20532;-59
2023/11/01 02:08:03;;;;;;;5.20;1.13;;;13.70;99.90;;;;;;5073615;28;20444;-58
2023/11/01 02:10:30;;;;;;;4.93;1.80;;;13.70;99.90;;;;;;5072825;28;20448;-59
2023/11/01 02:12:57;;;;;;;3.13;1.00;;;13.70;99.90;;;;;;5073313;28;20460;-59
2023/11/01 02:15:23;;;;;;;2.30;0.90;;;13.70;99.90;;;;;;5073337;28;20451;-59
2023/11/01 02:17:50;;;;;;;3.70;0.90;;;13.60;99.90;;;;;;5073508;28;20452;-58
2023/11/01 02:20:18;;;;;;;0.90;0.70;;;13.60;99.90;;;;;;5073579;28;20445;-59
2023/11/01 02:22:45;;;;;;;3.63;1.00;;;13.70;99.90;;;;;;5072749;28;21026;-59
2023/11/01 02:25:14;;;;;;;3.63;1.10;;;13.60;99.90;;;;;;5073377;28;20480;-58
2023/11/01 02:27:41;;;;;;;2.80;1.20;;;13.70;99.90;;;;;;5073301;28;20522;-58
2023/11/01 02:30:16;;;;;;;5.63;1.33;;;13.70;99.90;;;;;;5073253;28;20443;-59
2023/11/01 02:32:47;;;;;;;4.90;1.00;;;13.70;99.90;;;;;;5073220;28;20464;-59
2023/11/01 02:35:14;;;;;;;4.07;1.20;;;13.70;99.90;;;;;;5057142;28;20456;-58
2023/11/01 02:37:41;;;;;;;2.87;1.30;;;13.70;99.90;;;;;;5053056;28;20461;-57
2023/11/01 02:40:09;;;;;;;3.80;1.00;;;13.70;99.90;;;;;;5052796;28;20943;-58
2023/11/01 02:42:40;;;;;;;4.97;1.50;;;13.70;99.90;;;;;;5052954;28;20470;-58
2023/11/01 02:45:09;;;;;;;3.83;1.03;;;13.60;99.90;;;;;;5054713;28;20476;-57
2023/11/01 02:47:36;;;;;;;2.10;1.03;;;13.60;99.90;;;;;;5056761;28;20931;-58
2023/11/01 02:50:03;;;;;;;2.10;1.00;;;13.70;99.90;;;;;;5056934;28;20459;-58
2023/11/01 02:52:30;;;;;;;4.33;1.10;;;13.70;99.90;;;;;;5056599;28;20921;-57
2023/11/01 02:54:57;;;;;;;5.13;1.90;;;13.70;99.90;;;;;;5056891;28;20857;-58
2023/11/01 02:57:23;;;;;;;2.80;1.87;;;13.70;99.90;;;;;;5056617;28;20449;-58
2023/11/01 02:59:51;;;;;;;2.37;1.23;;;13.70;99.90;;;;;;5056669;28;20935;-58
2023/11/01 03:02:18;;;;;;;6.33;1.70;;;13.70;99.90;;;;;;5056411;28;20982;-59
2023/11/01 03:04:46;;;;;;;4.60;1.50;;;13.70;99.90;;;;;;5056346;28;20477;-59
2023/11/01 03:07:12;;;;;;;1.97;1.10;;;13.70;99.90;;;;;;5056418;28;20839;-59
2023/11/01 03:09:39;;;;;;;2.00;1.47;;;13.60;99.90;;;;;;5056790;28;20456;-59
2023/11/01 03:12:06;;;;;;;3.33;1.50;;;13.50;99.90;;;;;;5056297;28;20477;-59
2023/11/01 03:14:33;;;;;;;4.87;1.80;;;13.40;99.90;;;;;;5056361;28;20449;-59
2023/11/01 03:17:01;;;;;;;3.63;1.60;;;13.30;99.90;;;;;;5056593;28;20444;-59
2023/11/01 03:19:28;;;;;;;4.73;1.27;;;13.30;99.90;;;;;;5056476;28;20448;-59
2023/11/01 03:21:54;;;;;;;3.80;1.37;;;13.30;99.90;;;;;;5056390;28;20461;-59
2023/11/01 03:24:21;;;;;;;3.50;1.70;;;13.20;99.90;;;;;;5056354;28;20489;-59
2023/11/01 03:26:48;;;;;;;4.80;1.53;;;13.20;99.90;;;;;;5056432;28;20460;-59
2023/11/01 03:29:14;;;;;;;4.27;1.73;;;13.20;99.90;;;;;;5056065;28;20924;-59
2023/11/01 03:31:41;;;;;;;3.63;1.80;;;13.20;99.90;;;;;;5055929;28;20465;-59
2023/11/01 03:34:09;;;;;;;4.60;1.60;;;13.10;99.90;;;;;;5055769;28;20935;-58
2023/11/01 03:36:36;;;;;;;3.17;1.40;;;13.10;99.90;;;;;;5056218;28;20441;-59
2023/11/01 03:39:03;;;;;;;4.37;1.50;;;13.10;99.90;;;;;;5055929;28;20845;-59
2023/11/01 03:41:30;;;;;;;4.30;1.50;;;13.00;99.90;;;;;;5056033;28;20464;-59
2023/11/01 03:43:57;;;;;;;7.70;1.80;;;13.00;99.90;;;;;;5056892;28;20485;-59
2023/11/01 03:46:23;;;;;;;2.20;1.23;;;13.00;99.90;;;;;;5056032;28;20446;-59
2023/11/01 03:48:50;;;;;;;1.80;1.37;;;13.00;99.90;;;;;;5055954;28;20437;-59
2023/11/01 03:51:18;;;;;;;5.73;1.77;;;13.00;99.90;;;;;;5055947;28;20469;-59
2023/11/01 03:53:44;;;;;;;8.83;1.73;;;13.00;99.90;;;;;;5055523;28;20450;-59
2023/11/01 03:56:12;;;;;;;3.23;1.43;;;12.90;99.90;;;;;;5054622;28;20932;-59
2023/11/01 03:58:38;;;;;;;2.93;1.20;;;13.00;99.90;;;;;;5055824;28;20496;-59
2023/11/01 04:01:05;;;;;;;5.17;1.50;;;13.00;99.90;;;;;;5055700;28;20468;-59
2023/11/01 04:03:32;;;;;;;4.43;1.23;;;13.10;99.90;;;;;;5055605;28;20503;-59
2023/11/01 04:05:59;;;;;;;2.33;1.20;;;13.10;99.90;;;;;;5055359;28;20818;-59
2023/11/01 04:08:27;;;;;;;4.37;1.60;;;13.10;99.90;;;;;;5055649;28;20448;-59
2023/11/01 04:10:53;;;;;;;2.30;1.30;;;13.10;99.90;;;;;;5055039;28;20454;-59
2023/11/01 04:13:20;;;;;;;4.37;1.30;;;13.20;99.90;;;;;;5055494;28;20521;-60
2023/11/01 04:15:47;;;;;;;2.90;1.27;;;13.20;99.90;;;;;;5055369;28;20454;-60
2023/11/01 04:18:13;;;;;;;3.30;1.13;;;13.30;99.90;;;;;;5055598;28;20444;-60
2023/11/01 04:20:40;;;;;;;3.97;1.20;;;13.30;99.90;;;;;;5055879;28;20450;-60
2023/11/01 04:23:07;;;;;;;8.73;2.07;;;13.40;99.90;;;;;;5056061;28;20453;-61
2023/11/01 04:25:36;;;;;;;3.23;1.33;;;13.40;99.90;;;;;;5055950;28;20486;-60
2023/11/01 04:28:02;;;;;;;4.37;1.33;;;13.40;99.90;;;;;;5055947;28;20476;-60
2023/11/01 04:30:38;;;;;;;6.57;1.83;;;13.50;99.90;;;;;;5055668;28;20453;-60
2023/11/01 04:33:06;;;;;;;8.50;1.20;;;13.50;99.90;;;;;;5055610;28;20599;-61
2023/11/01 04:35:33;;;;;;;2.07;1.10;;;13.50;99.90;;;;;;5055068;28;20522;-60
2023/11/01 04:38:00;;;;;;;7.17;1.57;;;13.60;99.90;;;;;;5055174;28;20449;-60
2023/11/01 04:40:27;;;;;;;6.07;1.63;;;13.60;99.90;;;;;;5055082;28;20448;-60
2023/11/01 04:42:55;;;;;;;4.50;1.30;;;13.60;99.90;;;;;;5055426;28;20454;-59
2023/11/01 04:45:23;;;;;;;3.80;1.63;;;13.60;99.90;;;;;;5054557;28;20996;-59
2023/11/01 04:47:50;;;;;;;3.90;1.30;;;13.70;99.90;;;;;;5054889;28;20457;-59
2023/11/01 04:50:18;;;;;;;5.00;1.47;;;13.70;99.90;;;;;;5054906;28;20441;-59
2023/11/01 04:52:45;;;;;;;6.53;1.40;;;13.60;99.90;;;;;;5054807;28;20476;-60
2023/11/01 04:55:12;;;;;;;5.83;1.57;;;13.60;99.90;;;;;;5054389;28;20441;-60
2023/11/01 04:57:39;;;;;;;5.67;1.20;;;13.70;99.90;;;;;;5055332;28;20456;-60
2023/11/01 05:00:11;;;;;;;5.60;1.90;;;13.70;99.90;;;;;;5054662;28;20480;-60
2023/11/01 05:02:38;;;;;;;3.30;1.37;;;13.70;99.90;;;;;;5054780;28;20477;-60
2023/11/01 05:05:06;;;;;;;4.77;1.53;;;13.70;99.90;;;;;;5054513;28;20484;-61
2023/11/01 05:07:33;;;;;;;2.60;1.30;;;13.70;99.90;;;;;;5054616;28;20445;-61
2023/11/01 05:09:59;;;;;;;3.50;1.63;;;13.70;99.90;;;;;;5054516;28;20849;-61
2023/11/01 05:12:26;;;;;;;3.63;1.67;;;13.80;99.90;;;;;;5054023;28;20478;-61
2023/11/01 05:14:53;;;;;;;8.20;2.10;;;13.80;99.90;;;;;;5054239;28;20434;-61
2023/11/01 05:17:21;;;;;;;4.43;1.47;;;13.80;99.90;;;;;;5053949;28;20449;-61
2023/11/01 05:19:47;;;;;;;4.07;2.00;;;13.80;99.90;;;;;;5054522;28;20442;-61
2023/11/01 05:22:14;;;;;;;4.73;1.83;;;13.80;99.90;;;;;;5053927;28;20474;-61
2023/11/01 05:24:41;;;;;;;4.97;1.90;;;13.80;99.90;;;;;;5054348;28;20488;-61
2023/11/01 05:27:08;;;;;;;7.77;1.80;;;13.80;99.90;;;;;;5053954;28;20971;-61
2023/11/01 05:29:34;;;;;;;6.53;1.33;;;13.80;99.90;;;;;;5054192;28;20488;-61
2023/11/01 05:32:01;;;;;;;11.93;2.30;;;13.80;99.90;;;;;;5054049;28;20473;-61
2023/11/01 05:34:29;;;;;;;4.67;1.70;;;13.90;99.90;;;;;;5053989;28;20438;-61
2023/11/01 05:36:56;;;;;;;8.80;1.93;;;13.90;99.90;;;;;;5053932;28;20819;-61
2023/11/01 05:39:23;;;;;;;9.87;2.17;;;13.90;99.90;;;;;;5053879;28;20445;-60
2023/11/01 05:41:51;;;;;;;5.80;2.20;;;13.90;99.90;;;;;;5053790;28;20469;-60
2023/11/01 05:44:19;;;;;;;7.97;2.10;;;13.90;99.90;;;;;;5053658;28;20493;-62
2023/11/01 05:46:46;;;;;;;5.70;1.63;;;13.80;99.90;;;;;;5053821;28;20537;-61
2023/11/01 05:49:12;;;;;;;5.50;1.83;;;13.80;99.90;;;;;;5053764;28;20449;-61
2023/11/01 05:51:41;;;;;;;7.23;1.87;;;13.80;99.90;;;;;;5053581;28;21044;-61
2023/11/01 05:54:07;;;;;;;9.17;1.97;;;13.80;99.90;;;;;;5053705;28;20445;-60
2023/11/01 05:56:34;;;;;;;8.83;1.73;;;13.80;99.90;;;;;;5053461;28;20437;-61
2023/11/01 05:59:01;;;;;;;6.97;2.00;;;13.80;99.90;;;;;;5053560;28;20449;-60
2023/11/01 06:01:27;;;;;;;10.00;2.03;;;13.70;99.90;;;;;;5053321;28;20469;-60
2023/11/01 06:03:56;;;;;;;6.90;2.07;;;13.80;99.90;;;;;;5053790;28;20452;-61
2023/11/01 06:06:23;;;;;;;3.97;1.93;;;13.80;99.90;;;;;;5053612;28;20485;-60
2023/11/01 06:08:52;;;;;;;6.23;1.70;;;13.80;99.90;;;;;;5053466;28;20445;-61
2023/11/01 06:11:19;;;;;;;8.13;2.00;;;13.70;99.90;;;;;;5053026;28;20512;-61
2023/11/01 06:13:46;;;;;;;10.53;1.87;;;13.70;99.90;;;;;;5053341;28;20541;-61
2023/11/01 06:16:12;;;;;;;10.20;2.23;;;13.70;99.90;;;;;;5053183;28;20438;-61
2023/11/01 06:18:39;;;;;;;7.10;1.87;;;13.70;99.90;;;;;;5053279;28;20448;-61
2023/11/01 06:21:06;;;;;;;10.23;1.97;;;13.70;99.90;;;;;;5052571;28;20918;-60
2023/11/01 06:23:35;;;;;;;4.60;1.63;;;13.60;99.90;;;;;;5053353;28;20536;-61
2023/11/01 06:26:04;;;;;;;7.50;1.70;;;13.70;99.90;;;;;;5053122;28;20550;-60
2023/11/01 06:28:31;;;;;;;7.13;2.20;;;13.60;99.90;;;;;;5053216;28;20469;-60
2023/11/01 06:30:57;;;;;;;10.97;2.27;;;13.60;99.90;;;;;;5052906;28;20449;-60
2023/11/01 06:33:24;;;;;;;6.07;2.03;;;13.70;99.90;;;;;;5053183;28;20456;-60
2023/11/01 06:35:51;;;;;;;7.73;3.07;;;13.70;99.90;;;;;;5052948;28;20441;-60
2023/11/01 06:38:17;;;;;;;7.43;3.13;;;13.60;99.90;;;;;;5053036;28;20449;-60
2023/11/01 06:40:44;;;;;;;9.77;1.90;;;13.60;99.90;;;;;;5053006;28;20437;-61
2023/11/01 06:43:12;;;;;;;5.70;2.10;;;13.60;99.90;;;;;;5053171;28;20446;-60
2023/11/01 06:45:40;;;;;;;6.47;1.90;;;13.70;99.90;;;;;;5052925;28;20482;-60
2023/11/01 06:48:09;;;;;;;10.77;2.30;;;13.60;99.90;;;;;;5052796;28;20939;-60
2023/11/01 06:50:35;;;;;;;11.13;1.73;;;13.60;99.90;;;;;;5053085;28;20477;-61
2023/11/01 06:53:02;;;;;;;12.83;2.60;;;13.70;99.90;;;;;;5052878;28;20473;-60
2023/11/01 06:55:29;;;;;;;3.93;1.50;;;13.70;99.90;;;;;;5052857;28;20438;-61
2023/11/01 06:57:55;;;;;;;7.97;2.10;;;13.70;99.90;;;;;;5053457;28;20958;-61
2023/11/01 07:00:24;;;;;;;6.60;1.80;;;13.80;99.90;;;;;;5052863;28;20441;-61
2023/11/01 07:02:51;;;;;;;5.10;2.10;;;13.80;99.90;;;;;;5052830;28;20490;-60
2023/11/01 07:05:18;;;;;;;8.73;2.93;;;13.70;99.90;;;;;;5052851;28;20515;-60
2023/11/01 07:07:44;;;;;;;9.00;2.77;;;13.80;99.90;;;;;;5053034;28;20524;-61
2023/11/01 07:10:11;;;;;;;6.00;2.20;;;13.80;99.90;;;;;;5052659;28;20817;-61
2023/11/01 07:12:39;;;;;;;7.23;2.50;;;13.80;99.90;;;;;;5052510;28;20480;-61
2023/11/01 07:15:08;;;;;;;5.70;2.20;;;13.90;99.90;;;;;;5052833;28;20445;-61
2023/11/01 07:17:36;;;;;;;10.27;1.70;;;14.00;99.90;;;;;;5055597;28;20500;-61
2023/11/01 07:20:04;;;;;;;5.20;1.70;;;14.10;99.90;;;;;;5065697;28;20473;-60
2023/11/01 07:22:31;;;;;;;6.23;2.00;;;14.10;99.90;;;;;;5052351;28;20994;-61
2023/11/01 07:24:58;;;;;;;8.07;2.40;;;14.10;99.90;;;;;;5052603;28;20489;-61
2023/11/01 07:27:24;;;;;;;9.57;2.30;;;14.20;99.90;;;;;;5052675;28;20450;-61
2023/11/01 07:29:51;;;;;;;6.27;2.30;;;14.20;99.90;;;;;;5052690;28;20473;-60
2023/11/01 07:32:18;;;;;;;7.30;1.90;;;14.30;99.90;;;;;;5054420;28;20903;-61
2023/11/01 07:34:46;;;;;;;6.10;2.30;;;14.30;99.90;;;;;;5056024;28;20962;-61
2023/11/01 07:37:13;;;;;;;7.47;2.47;;;14.40;99.90;;;;;;5055354;28;20877;-61
2023/11/01 07:39:40;;;;;;;9.20;2.60;;;14.40;99.90;;;;;;5056877;28;20467;-61
2023/11/01 07:42:06;;;;;;;7.63;2.53;;;14.50;99.90;;;;;;5055781;28;20465;-61
2023/11/01 07:44:33;;;;;;;8.77;2.07;;;14.50;99.90;;;;;;5064125;28;20443;-61
2023/11/01 07:47:00;;;;;;;6.80;2.27;;;14.60;99.90;;;;;;5096080;28;20439;-61
2023/11/01 07:49:26;;;;;;;5.50;2.00;;;14.60;99.90;;;;;;5074915;28;20452;-61
2023/11/01 07:51:55;;;;;;;4.67;2.23;;;14.60;99.90;;;;;;5076008;28;20457;-61
2023/11/01 07:54:22;;;;;;;5.97;1.90;;;14.60;99.90;;;;;;5076098;28;20441;-61
2023/11/01 07:56:48;;;;;;;6.90;2.17;;;14.60;99.90;;;;;;5075960;28;20540;-61
2023/11/01 07:59:15;;;;;;;4.90;1.10;;;14.70;99.90;;;;;;5065854;28;20456;-61
2023/11/01 08:01:42;;;;;;;6.10;3.43;;;14.70;99.90;;;;;;5074643;28;20480;-61
2023/11/01 08:04:09;;;;;;;5.27;2.03;;;14.80;99.90;;;;;;5075969;28;20445;-61
2023/11/01 08:06:37;;;;;;;3.97;1.70;;;14.80;99.90;;;;;;5075737;28;20530;-61
2023/11/01 08:09:05;;;;;;;3.93;1.70;;;14.80;99.90;;;;;;5065798;28;20468;-61
2023/11/01 08:11:32;;;;;;;6.53;1.53;;;14.80;99.90;;;;;;5060909;28;20500;-60
2023/11/01 08:13:59;;;;;;;5.93;2.07;;;14.90;99.90;;;;;;5063926;28;20472;-61
2023/11/01 08:16:26;;;;;;;4.47;2.37;;;15.00;99.90;;;;;;5074686;28;20458;-59
2023/11/01 08:18:53;;;;;;;9.20;2.50;;;15.00;99.90;;;;;;5074097;28;20457;-59
2023/11/01 08:21:19;;;;;;;7.20;1.97;;;15.00;99.90;;;;;;5075206;28;20480;-59
2023/11/01 08:23:46;;;;;;;9.87;1.87;;;15.10;99.90;;;;;;5075612;28;20452;-59
2023/11/01 08:26:17;;;;;;;4.87;1.30;;;15.10;99.90;;;;;;5075375;28;20477;-61
2023/11/01 08:28:44;;;;;;;5.87;1.70;;;15.20;99.90;;;;;;5065868;28;20452;-59
2023/11/01 08:31:10;;;;;;;5.53;1.50;;;15.20;99.90;;;;;;5055199;28;20472;-59
2023/11/01 08:33:37;;;;;;;4.50;1.60;;;15.20;99.90;;;;;;5055359;28;20445;-59
2023/11/01 08:36:05;;;;;;;4.80;2.00;;;15.20;99.90;;;;;;5055111;28;20453;-59
2023/11/01 08:38:32;;;;;;;7.27;1.90;;;15.10;99.90;;;;;;5062106;28;20469;-58
2023/11/01 08:40:58;;;;;;;5.97;2.23;;;15.10;99.90;;;;;;5055058;28;20467;-59
2023/11/01 08:43:26;;;;;;;5.87;2.30;;;15.10;99.90;;;;;;5055027;28;20465;-59
2023/11/01 08:45:53;;;;;;;9.83;2.93;;;15.20;99.90;;;;;;5054863;28;20862;-59
2023/11/01 08:48:20;;;;;;;6.87;1.90;;;15.20;99.90;;;;;;5061043;28;20849;-59
2023/11/01 08:50:46;;;;;;;12.80;2.10;;;15.30;99.90;;;;;;5054801;28;20446;-59
2023/11/01 08:53:13;;;;;;;7.00;1.70;;;15.30;99.90;;;;;;5054995;28;20448;-59
2023/11/01 08:55:40;;;;;;;5.50;1.57;;;15.40;99.90;;;;;;5054952;28;20460;-60
2023/11/01 08:58:07;;;;;;;7.73;1.57;;;15.40;99.90;;;;;;5057656;28;20472;-59
2023/11/01 09:00:35;;;;;;;110.37;7.37;;;15.40;99.90;;;;;;5058111;28;20461;-59
2023/11/01 09:03:02;;;;;;;7.97;1.70;;;15.40;99.90;;;;;;5054741;28;20476;-60
2023/11/01 09:05:28;;;;;;;6.60;2.13;;;15.40;99.90;;;;;;5054916;28;20864;-59
2023/11/01 09:07:55;;;;;;;4.07;1.70;;;15.40;99.90;;;;;;5054830;28;20448;-59
2023/11/01 09:10:22;;;;;;;4.10;1.70;;;15.50;99.90;;;;;;5060901;28;20523;-60
2023/11/01 09:12:48;;;;;;;7.00;1.60;;;15.50;99.90;;;;;;5057259;28;20552;-60
2023/11/01 09:15:15;;;;;;;5.13;2.23;;;15.60;99.90;;;;;;5073280;28;20448;-60
2023/11/01 09:17:43;;;;;;;2.77;1.37;;;15.60;99.90;;;;;;5059226;28;20474;-59
2023/11/01 09:20:10;;;;;;;5.40;1.40;;;15.60;99.90;;;;;;5065257;28;20441;-60
2023/11/01 09:22:37;;;;;;;6.40;1.40;;;15.70;99.90;;;;;;5054200;28;20477;-59
2023/11/01 09:25:04;;;;;;;2.90;1.40;;;15.70;99.90;;;;;;5062799;28;20468;-59
2023/11/01 09:27:31;;;;;;;11.00;2.70;;;15.70;99.90;;;;;;5066329;28;20510;-59
2023/11/01 09:29:58;;;;;;;5.60;1.73;;;15.70;99.90;;;;;;5072973;28;20467;-59
2023/11/01 09:32:24;;;;;;;7.53;2.20;;;15.70;99.90;;;;;;5067779;28;20483;-59
2023/11/01 09:34:52;;;;;;;4.20;1.67;;;15.70;99.90;;;;;;5058364;28;20445;-59
2023/11/01 09:37:19;;;;;;;2.47;1.17;;;15.60;99.90;;;;;;5057512;28;20445;-59
2023/11/01 09:39:46;;;;;;;13.63;2.33;;;15.70;99.90;;;;;;5058489;28;20463;-59
2023/11/01 09:42:19;;;;;;;6.43;1.60;;;15.60;99.90;;;;;;5072063;28;20465;-59
2023/11/01 09:44:47;;;;;;;4.00;2.00;;;15.70;99.90;;;;;;5056447;28;21025;-59
2023/11/01 09:47:15;;;;;;;7.47;1.60;;;15.80;99.90;;;;;;5061155;28;20936;-59
2023/11/01 09:49:44;;;;;;;3.40;1.17;;;15.90;99.70;;;;;;5070458;28;20468;-59
2023/11/01 09:52:13;;;;;;;5.37;1.67;;;16.00;99.60;;;;;;5073520;28;20472;-59
2023/11/01 09:54:39;;;;;;;3.10;1.07;;;16.20;99.30;;;;;;5065527;28;20471;-59
2023/11/01 09:57:07;;;;;;;10.03;2.03;;;16.40;98.90;;;;;;5059353;28;20487;-59
2023/11/01 09:59:34;;;;;;;8.37;1.33;;;16.50;98.30;;;;;;5063415;28;20449;-59
2023/11/01 10:02:01;;;;;;;4.57;1.40;;;16.60;97.70;;;;;;5065027;28;20460;-59
2023/11/01 10:04:29;;;;;;;6.53;2.53;;;16.60;96.80;;;;;;5053293;28;20442;-59
2023/11/01 10:06:56;;;;;;;3.53;1.77;;;16.60;97.10;;;;;;5053442;28;20489;-59
2023/11/01 10:09:24;;;;;;;5.93;1.33;;;16.60;97.20;;;;;;5052834;28;20441;-59
2023/11/01 10:11:51;;;;;;;7.60;1.60;;;16.50;97.30;;;;;;5052752;28;20486;-60
2023/11/01 10:14:27;;;;;;;5.13;1.37;;;16.40;97.10;;;;;;5050722;28;20469;-59
2023/11/01 10:16:56;;;;;;;6.67;1.50;;;16.40;97.10;;;;;;5053241;28;20433;-59
2023/11/01 10:19:23;;;;;;;6.10;1.90;;;16.30;97.10;;;;;;5053412;28;20449;-59
2023/11/01 10:21:50;;;;;;;4.60;1.30;;;16.20;97.00;;;;;;5056314;28;20483;-59
2023/11/01 10:24:17;;;;;;;7.83;3.53;;;16.30;97.20;;;;;;5072319;28;20457;-60
2023/11/01 10:26:45;;;;;;;6.50;1.33;;;16.20;97.20;;;;;;5072916;28;20476;-59
2023/11/01 10:29:11;;;;;;;4.67;1.60;;;16.30;97.40;;;;;;5073313;28;20444;-59
2023/11/01 10:31:38;;;;;;;4.67;1.20;;;16.30;96.90;;;;;;5073286;28;20469;-59
2023/11/01 10:34:11;;;;;;;2.57;1.27;;;16.40;96.90;;;;;;5059977;28;20975;-59
2023/11/01 10:36:50;;;;;;;5.70;1.33;;;16.40;96.60;;;;;;5053949;28;20418;-59
2023/11/01 10:39:18;;;;;;;5.10;1.00;;;16.60;96.50;;;;;;5056096;28;20453;-59
2023/11/01 10:41:48;;;;;;;10.60;2.40;;;16.70;96.30;;;;;;5066664;28;20468;-59
2023/11/01 10:44:15;;;;;;;4.43;1.27;;;16.60;95.70;;;;;;5059157;28;20444;-59
2023/11/01 10:46:42;;;;;;;5.73;1.27;;;16.80;95.90;;;;;;5056899;28;20485;-59
2023/11/01 10:49:11;;;;;;;4.00;1.20;;;17.00;95.90;;;;;;5060758;28;20446;-60
2023/11/01 10:51:39;;;;;;;3.63;1.23;;;17.00;94.90;;;;;;5053147;28;20465;-59
2023/11/01 10:54:06;;;;;;;5.30;1.33;;;16.80;94.90;;;;;;5064874;28;20444;-59
2023/11/01 10:56:33;;;;;;;3.40;1.93;;;16.80;94.80;;;;;;5067254;28;20556;-59
2023/11/01 10:59:07;;;;;;;3.87;1.40;;;16.60;94.80;;;;;;5068943;28;20471;-59
2023/11/01 11:01:39;;;;;;;3.97;1.50;;;16.60;95.40;;;;;;5073134;28;20868;-59
2023/11/01 11:04:21;;;;;;;2.87;1.20;;;16.50;95.80;;;;;;5072899;28;20456;-59
2023/11/01 11:06:56;;;;;;;2.57;1.00;;;16.40;96.10;;;;;;5073328;28;20473;-59
2023/11/01 11:09:25;;;;;;;6.43;2.30;;;16.40;95.80;;;;;;5074510;28;20460;-60
2023/11/01 11:12:14;;;;;;;4.40;1.50;;;16.30;96.10;;;;;;5064624;28;20951;-59
2023/11/01 11:14:44;;;;;;;4.40;1.40;;;16.40;96.20;;;;;;5056826;28;20460;-60
2023/11/01 11:17:15;;;;;;;6.77;1.50;;;16.50;96.20;;;;;;5057884;28;20460;-59
2023/11/01 11:20:13;;;;;;;5.20;1.40;;;16.30;95.90;;;;;;5075744;28;20887;-59
2023/11/01 11:23:08;;;;;;;6.27;1.47;;;16.40;95.80;;;;;;5076800;28;21059;-60
2023/11/01 11:25:51;;;;;;;6.10;1.53;;;16.50;96.00;;;;;;5076510;28;20440;-59
2023/11/01 11:28:40;;;;;;;4.13;1.63;;;16.50;96.10;;;;;;5072205;28;20463;-59
2023/11/01 11:31:12;;;;;;;3.40;1.10;;;16.50;95.70;;;;;;5056341;28;20464;-60
2023/11/01 11:33:54;;;;;;;3.57;1.40;;;16.50;95.40;;;;;;5056421;28;20838;-60
2023/11/01 11:36:23;;;;;;;5.10;1.43;;;16.50;95.60;;;;;;5055882;28;20931;-60
2023/11/01 11:38:52;;;;;;;4.80;1.50;;;16.60;95.60;;;;;;5055581;28;20468;-59
2023/11/01 11:41:21;;;;;;;8.37;1.90;;;16.70;94.90;;;;;;5058607;28;20480;-59
2023/11/01 11:44:05;;;;;;;5.13;1.30;;;16.80;94.80;;;;;;5065001;28;20500;-59
2023/11/01 11:46:35;;;;;;;6.87;1.73;;;16.90;94.70;;;;;;5076176;28;20491;-60
2023/11/01 11:49:03;;;;;;;9.00;1.43;;;17.00;94.30;;;;;;5076627;28;20494;-60
2023/11/01 11:51:33;;;;;;;5.13;1.50;;;17.00;94.10;;;;;;5076086;28;20472;-60
2023/11/01 11:54:10;;;;;;;6.57;1.30;;;17.00;94.00;;;;;;5066450;28;20462;-59
2023/11/01 11:56:37;;;;;;;4.33;1.20;;;17.00;94.20;;;;;;5071074;28;20429;-59
2023/11/01 11:59:04;;;;;;;3.40;1.23;;;17.00;94.50;;;;;;5066100;28;20536;-59
2023/11/01 12:01:32;;;;;;;7.33;2.27;;;17.00;94.30;;;;;;5074798;28;20496;-59
2023/11/01 12:03:59;;;;;;;4.70;1.20;;;16.80;94.20;;;;;;5075586;28;20962;-60
2023/11/01 12:06:26;;;;;;;6.37;1.00;;;16.80;94.20;;;;;;5075411;28;21008;-60
2023/11/01 12:08:53;;;;;;;7.20;1.63;;;16.90;94.20;;;;;;5073685;28;20464;-60
2023/11/01 12:11:20;;;;;;;6.33;1.43;;;16.80;94.30;;;;;;5059998;28;20493;-59
2023/11/01 12:13:49;;;;;;;5.47;1.43;;;16.80;94.40;;;;;;5055624;28;20452;-60
2023/11/01 12:16:27;;;;;;;3.70;1.33;;;16.80;94.40;;;;;;5056372;28;20457;-59
2023/11/01 12:19:16;;;;;;;7.03;1.47;;;16.90;94.00;;;;;;5054784;28;20488;-60
2023/11/01 12:21:44;;;;;;;4.97;1.50;;;16.90;93.70;;;;;;5054899;28;20511;-59
2023/11/01 12:24:14;;;;;;;5.10;1.40;;;17.00;93.70;;;;;;5055144;28;20923;-60
2023/11/01 12:27:13;;;;;;;3.20;1.00;;;17.00;93.30;;;;;;5055325;28;20488;-60
2023/11/01 12:29:45;;;;;;;6.43;1.53;;;17.10;93.60;;;;;;5012901;28;20839;-60
2023/11/01 12:32:13;;;;;;;7.77;1.40;;;17.10;93.20;;;;;;5052812;28;20481;-60
2023/11/01 12:35:02;;;;;;;5.50;1.63;;;16.90;93.10;;;;;;5055257;28;20445;-60
2023/11/01 12:37:30;;;;;;;9.43;2.03;;;16.90;93.30;;;;;;5071960;28;20457;-62
2023/11/01 12:40:04;;;;;;;5.50;1.43;;;16.90;93.40;;;;;;5068900;28;20496;-60
2023/11/01 12:42:32;;;;;;;8.93;1.30;;;16.90;94.00;;;;;;5055077;28;20552;-60
2023/11/01 12:44:59;;;;;;;3.60;1.10;;;16.90;92.90;;;;;;5055038;28;20444;-60
2023/11/01 12:47:28;;;;;;;3.97;1.70;;;16.90;93.10;;;;;;5054607;28;20560;-60
2023/11/01 12:49:58;;;;;;;3.60;1.20;;;16.90;92.80;;;;;;5061519;28;20500;-60